Time;durP1;ratioP1;P1;durP2;ratioP2;P2;SDS_P1;SDS_P2;PMS_P1;PMS_P2;Temp;Humidity;BMP_temperature;BMP_pressure;BME280_temperature;BME280_humidity;BME280_pressure;Samples;Min_cycle;Max_cycle;Signal;HPM_P1;HPM_P2
2022/03/12 00:00:36;;;;;;;13.27;6.88;;;4.70;36.00;;;;;;5080835;28;20080;-64
2022/03/12 00:03:02;;;;;;;13.98;7.30;;;4.70;35.90;;;;;;5077362;28;20106;-64
2022/03/12 00:05:30;;;;;;;12.90;7.03;;;4.60;35.90;;;;;;5081965;28;20024;-64
2022/03/12 00:08:00;;;;;;;11.52;6.10;;;4.60;36.10;;;;;;5072070;28;20100;-64
2022/03/12 00:10:31;;;;;;;11.23;5.90;;;4.50;36.00;;;;;;5080308;28;20028;-64
2022/03/12 00:12:57;;;;;;;10.27;6.32;;;4.70;36.30;;;;;;5081204;28;20036;-64
2022/03/12 00:15:23;;;;;;;14.35;6.22;;;4.50;36.20;;;;;;5088020;28;20025;-65
2022/03/12 00:17:49;;;;;;;10.88;6.55;;;4.80;36.40;;;;;;5082498;28;20029;-64
2022/03/12 00:20:18;;;;;;;13.73;6.57;;;4.70;36.40;;;;;;5080141;28;20021;-65
2022/03/12 00:22:48;;;;;;;10.55;6.28;;;4.40;36.30;;;;;;5083012;28;20029;-65
2022/03/12 00:25:19;;;;;;;9.68;6.22;;;4.40;36.40;;;;;;5085465;28;20035;-64
2022/03/12 00:27:45;;;;;;;12.40;7.13;;;4.40;36.50;;;;;;5081654;28;20041;-64
2022/03/12 00:30:16;;;;;;;15.75;7.07;;;4.40;36.40;;;;;;5077893;28;20099;-64
2022/03/12 00:32:42;;;;;;;12.13;7.03;;;4.30;36.60;;;;;;5087052;28;20506;-64
2022/03/12 00:35:11;;;;;;;12.32;6.82;;;4.30;36.70;;;;;;5082172;28;20037;-65
2022/03/12 00:37:38;;;;;;;13.05;6.85;;;4.30;36.80;;;;;;5074153;28;20411;-64
2022/03/12 00:40:05;;;;;;;13.75;7.25;;;4.20;36.70;;;;;;5085563;28;20064;-64
2022/03/12 00:42:31;;;;;;;15.18;7.22;;;4.10;36.90;;;;;;5090384;28;20016;-64
2022/03/12 00:44:58;;;;;;;9.90;6.50;;;4.10;36.90;;;;;;5080997;28;20036;-64
2022/03/12 00:47:24;;;;;;;13.70;6.90;;;4.10;36.90;;;;;;5082986;28;20036;-64
2022/03/12 00:49:50;;;;;;;10.27;6.57;;;4.00;37.00;;;;;;5081948;28;20028;-64
2022/03/12 00:52:17;;;;;;;10.93;5.93;;;4.00;37.10;;;;;;5087519;28;20025;-64
2022/03/12 00:54:43;;;;;;;12.50;6.28;;;4.00;37.20;;;;;;5077007;28;20032;-65
2022/03/12 00:57:11;;;;;;;10.13;6.13;;;4.00;37.20;;;;;;5092703;28;20025;-65
2022/03/12 00:59:38;;;;;;;13.98;6.00;;;3.90;37.40;;;;;;5086818;28;20023;-64
2022/03/12 01:02:05;;;;;;;11.57;5.60;;;3.90;37.30;;;;;;5082687;28;20070;-65
2022/03/12 01:04:31;;;;;;;10.00;5.38;;;3.90;37.10;;;;;;5085972;28;20017;-64
2022/03/12 01:06:57;;;;;;;10.02;5.13;;;3.90;37.10;;;;;;5078078;28;20032;-64
2022/03/12 01:09:23;;;;;;;15.43;5.95;;;3.90;37.20;;;;;;5092178;28;20058;-65
2022/03/12 01:11:48;;;;;;;11.90;5.50;;;3.90;37.30;;;;;;5072855;28;20052;-64
2022/03/12 01:14:15;;;;;;;13.18;5.65;;;3.90;37.50;;;;;;5090494;28;20536;-65
2022/03/12 01:16:41;;;;;;;10.55;5.25;;;3.90;37.50;;;;;;5076475;28;20096;-65
2022/03/12 01:19:08;;;;;;;10.50;5.82;;;3.90;37.50;;;;;;5075019;28;20074;-64
2022/03/12 01:21:34;;;;;;;14.38;5.63;;;3.90;37.40;;;;;;5093115;28;20052;-64
2022/03/12 01:24:00;;;;;;;10.40;5.90;;;3.90;37.30;;;;;;5090336;28;20044;-64
2022/03/12 01:26:26;;;;;;;11.00;5.50;;;3.80;38.00;;;;;;5083705;28;20021;-64
2022/03/12 01:28:52;;;;;;;14.77;6.13;;;3.90;37.40;;;;;;5087300;28;20136;-64
2022/03/12 01:31:18;;;;;;;11.65;5.90;;;3.90;37.50;;;;;;5085697;28;20020;-65
2022/03/12 01:33:44;;;;;;;17.17;6.65;;;4.00;37.50;;;;;;5092580;28;20021;-64
2022/03/12 01:36:10;;;;;;;14.57;6.50;;;3.80;37.50;;;;;;5076241;28;20141;-64
2022/03/12 01:38:47;;;;;;;13.65;6.65;;;4.10;37.60;;;;;;5092884;28;20132;-65
2022/03/12 01:41:13;;;;;;;13.23;5.75;;;3.80;37.80;;;;;;5088442;28;20030;-66
2022/03/12 01:43:39;;;;;;;14.20;6.70;;;3.80;37.50;;;;;;5068375;28;20039;-64
2022/03/12 01:46:09;;;;;;;13.48;6.88;;;3.80;37.50;;;;;;5085755;28;20180;-64
2022/03/12 01:48:36;;;;;;;12.73;6.65;;;3.80;37.60;;;;;;5054124;28;20060;-64
2022/03/12 01:51:02;;;;;;;12.23;6.15;;;3.80;37.70;;;;;;5087602;28;20031;-65
2022/03/12 01:53:28;;;;;;;9.55;6.25;;;3.80;37.90;;;;;;5090772;28;20043;-65
2022/03/12 01:55:54;;;;;;;13.05;6.00;;;3.80;38.20;;;;;;5083909;28;20052;-65
2022/03/12 01:58:21;;;;;;;13.30;6.38;;;3.80;38.10;;;;;;5076343;28;20132;-64
2022/03/12 02:00:51;;;;;;;10.82;5.85;;;3.80;38.10;;;;;;5089728;28;20069;-64
2022/03/12 02:03:23;;;;;;;12.02;6.78;;;3.80;38.10;;;;;;5080220;28;20037;-65
2022/03/12 02:05:50;;;;;;;9.90;5.93;;;3.80;38.00;;;;;;5078554;28;20071;-64
2022/03/12 02:08:16;;;;;;;10.95;5.90;;;3.80;38.00;;;;;;5098532;28;20048;-64
2022/03/12 02:10:43;;;;;;;10.27;6.10;;;3.90;38.20;;;;;;5074659;28;20102;-65
2022/03/12 02:13:09;;;;;;;12.35;6.35;;;3.80;38.50;;;;;;5077526;28;20028;-64
2022/03/12 02:15:35;;;;;;;12.02;6.45;;;3.70;38.60;;;;;;5082792;28;20033;-64
2022/03/12 02:18:01;;;;;;;9.60;6.03;;;3.60;38.70;;;;;;5068640;28;20051;-65
2022/03/12 02:20:27;;;;;;;9.77;5.53;;;3.60;39.00;;;;;;5098485;28;20027;-65
2022/03/12 02:22:53;;;;;;;13.38;5.53;;;3.60;39.10;;;;;;5089678;28;20029;-64
2022/03/12 02:25:32;;;;;;;10.10;5.57;;;3.50;39.10;;;;;;5078481;28;20025;-64
2022/03/12 02:28:00;;;;;;;11.60;6.20;;;3.50;39.40;;;;;;5074375;28;20044;-65
2022/03/12 02:30:34;;;;;;;8.68;5.90;;;3.50;39.10;;;;;;5086898;28;20031;-65
2022/03/12 02:33:04;;;;;;;10.40;5.15;;;3.50;39.30;;;;;;5072052;28;20201;-65
2022/03/12 02:35:37;;;;;;;9.35;5.03;;;3.40;39.20;;;;;;5083392;28;20036;-65
2022/03/12 02:38:04;;;;;;;11.45;5.82;;;3.60;39.10;;;;;;5077686;28;20078;-65
2022/03/12 02:40:32;;;;;;;11.98;5.57;;;3.40;39.00;;;;;;5081810;28;20056;-65
2022/03/12 02:42:58;;;;;;;11.10;5.50;;;3.40;39.00;;;;;;5082718;28;20063;-65
2022/03/12 02:45:27;;;;;;;12.18;5.30;;;3.70;39.00;;;;;;5080890;28;20468;-65
2022/03/12 02:47:54;;;;;;;12.27;5.40;;;3.40;38.90;;;;;;5098083;28;20032;-64
2022/03/12 02:50:21;;;;;;;12.70;5.38;;;3.40;38.90;;;;;;5080020;28;20140;-65
2022/03/12 02:52:47;;;;;;;10.52;5.53;;;3.40;38.80;;;;;;5084173;28;20490;-65
2022/03/12 02:55:17;;;;;;;17.25;5.35;;;3.40;39.00;;;;;;5087777;28;20039;-66
2022/03/12 02:57:45;;;;;;;9.55;5.15;;;3.60;39.20;;;;;;5079059;28;20063;-64
2022/03/12 03:00:12;;;;;;;9.07;5.25;;;3.80;39.20;;;;;;5084970;28;20024;-65
2022/03/12 03:02:39;;;;;;;10.73;5.25;;;3.50;39.10;;;;;;5071609;28;20106;-65
2022/03/12 03:05:41;;;;;;;16.60;5.72;;;3.40;39.10;;;;;;5086357;28;20056;-64
2022/03/12 03:08:06;;;;;;;11.65;5.30;;;3.50;39.10;;;;;;5075536;28;20041;-65
2022/03/12 03:10:41;;;;;;;11.00;5.07;;;3.50;38.80;;;;;;5074480;28;20025;-65
2022/03/12 03:13:21;;;;;;;;;;;3.40;39.00;;;;;;5086337;28;20112;-65
2022/03/12 03:15:59;;;;;;;12.57;4.90;;;3.50;39.10;;;;;;5076673;28;19976;-64
2022/03/12 03:18:28;;;;;;;15.10;5.72;;;3.50;38.80;;;;;;5093077;28;20024;-65
2022/03/12 03:20:54;;;;;;;9.57;5.10;;;3.40;38.40;;;;;;5088121;28;20043;-64
2022/03/12 03:23:22;;;;;;;8.27;5.13;;;3.60;38.60;;;;;;5083050;28;20040;-64
2022/03/12 03:25:49;;;;;;;6.80;4.40;;;3.40;38.60;;;;;;5092100;28;20024;-64
2022/03/12 03:28:14;;;;;;;8.90;5.03;;;3.40;38.50;;;;;;5089034;28;20067;-64
2022/03/12 03:30:40;;;;;;;11.82;5.50;;;3.40;38.50;;;;;;5071396;28;20040;-65
2022/03/12 03:33:09;;;;;;;9.10;4.72;;;3.40;39.10;;;;;;5095647;28;20060;-64
2022/03/12 03:35:38;;;;;;;18.80;4.95;;;3.40;38.60;;;;;;5083231;28;20070;-64
2022/03/12 03:38:04;;;;;;;9.13;5.50;;;3.40;38.50;;;;;;5084117;28;20088;-64
2022/03/12 03:40:30;;;;;;;9.00;4.55;;;3.40;38.50;;;;;;5084357;28;20024;-64
2022/03/12 03:42:55;;;;;;;13.70;4.40;;;3.60;39.50;;;;;;5081726;28;20033;-65
2022/03/12 03:45:23;;;;;;;7.45;4.47;;;3.40;38.90;;;;;;5092195;28;20092;-65
2022/03/12 03:47:52;;;;;;;7.93;4.68;;;3.60;38.70;;;;;;5091217;28;20041;-64
2022/03/12 03:50:20;;;;;;;8.98;5.00;;;3.40;38.50;;;;;;5063585;28;20025;-64
2022/03/12 03:52:46;;;;;;;8.68;4.95;;;3.40;38.40;;;;;;5086013;28;20401;-64
2022/03/12 03:55:12;;;;;;;9.30;4.53;;;3.40;38.40;;;;;;5092726;28;20069;-64
2022/03/12 03:57:38;;;;;;;9.10;4.72;;;3.40;38.40;;;;;;5077688;28;20056;-64
2022/03/12 04:00:05;;;;;;;10.55;4.80;;;3.40;38.50;;;;;;5090613;28;20503;-64
2022/03/12 04:02:31;;;;;;;8.98;4.55;;;3.40;38.40;;;;;;5083083;28;20016;-64
2022/03/12 04:04:56;;;;;;;8.85;4.95;;;3.40;38.40;;;;;;5089771;28;20038;-65
2022/03/12 04:07:22;;;;;;;12.32;4.78;;;3.40;38.50;;;;;;5079411;28;20129;-65
2022/03/12 04:09:48;;;;;;;10.40;5.15;;;3.70;38.60;;;;;;5078601;28;20089;-65
2022/03/12 04:12:14;;;;;;;6.70;4.32;;;3.50;38.70;;;;;;5079745;28;20020;-64
2022/03/12 04:14:40;;;;;;;11.88;5.45;;;3.50;38.90;;;;;;5086471;28;20036;-64
2022/03/12 04:17:05;;;;;;;9.20;4.93;;;3.40;38.90;;;;;;5089300;28;20042;-63
2022/03/12 04:19:33;;;;;;;6.63;4.68;;;3.40;38.80;;;;;;5072958;28;20029;-64
2022/03/12 04:21:58;;;;;;;8.05;5.15;;;3.60;39.00;;;;;;5073808;28;20516;-65
2022/03/12 04:24:25;;;;;;;10.88;5.10;;;3.40;38.80;;;;;;5092266;28;20039;-65
2022/03/12 04:26:51;;;;;;;8.07;5.20;;;3.40;38.70;;;;;;5082169;28;20035;-65
2022/03/12 04:29:18;;;;;;;8.32;4.85;;;3.50;38.70;;;;;;5085916;28;20028;-65
2022/03/12 04:31:49;;;;;;;8.27;4.68;;;3.40;38.80;;;;;;5074404;28;20025;-66
2022/03/12 04:34:15;;;;;;;12.70;4.93;;;3.70;39.00;;;;;;5093966;28;20084;-64
2022/03/12 04:36:41;;;;;;;7.47;4.70;;;3.60;38.70;;;;;;5086570;28;20033;-65
2022/03/12 04:39:09;;;;;;;6.88;4.82;;;3.50;38.60;;;;;;5092893;28;20021;-64
2022/03/12 04:41:35;;;;;;;8.95;5.05;;;3.50;38.60;;;;;;5089674;28;20032;-64
2022/03/12 04:44:04;;;;;;;10.18;5.50;;;3.50;38.80;;;;;;5089119;28;20024;-64
2022/03/12 04:46:30;;;;;;;10.00;5.65;;;3.50;39.40;;;;;;5089358;28;20024;-64
2022/03/12 04:48:56;;;;;;;8.93;5.75;;;3.50;39.60;;;;;;5080669;28;20031;-66
2022/03/12 04:51:21;;;;;;;13.63;5.38;;;3.40;39.60;;;;;;5084148;28;20032;-65
2022/03/12 04:53:47;;;;;;;9.27;5.47;;;3.40;39.70;;;;;;5090714;28;20077;-65
2022/03/12 04:56:12;;;;;;;8.43;5.13;;;3.50;39.80;;;;;;5068586;28;20032;-66
2022/03/12 04:58:39;;;;;;;8.70;5.47;;;3.40;39.90;;;;;;5064454;28;20036;-64
2022/03/12 05:01:07;;;;;;;9.68;5.50;;;3.40;40.00;;;;;;5094305;28;20025;-65
2022/03/12 05:03:32;;;;;;;8.68;5.30;;;3.30;40.00;;;;;;5074589;28;20033;-64
2022/03/12 05:06:02;;;;;;;7.75;5.20;;;3.40;40.20;;;;;;5078527;28;20096;-64
2022/03/12 05:08:28;;;;;;;9.80;5.07;;;3.40;40.20;;;;;;5091686;28;20124;-65
2022/03/12 05:10:56;;;;;;;8.73;5.00;;;3.40;40.40;;;;;;5075082;28;20031;-64
2022/03/12 05:13:23;;;;;;;8.68;5.22;;;3.30;40.60;;;;;;5079618;28;20035;-65
2022/03/12 05:15:54;;;;;;;9.52;5.28;;;3.30;40.90;;;;;;5089317;28;20102;-64
2022/03/12 05:18:22;;;;;;;9.70;5.88;;;3.30;41.20;;;;;;5080511;28;20039;-65
2022/03/12 05:20:48;;;;;;;9.93;5.28;;;3.30;41.10;;;;;;5076571;28;20051;-64
2022/03/12 05:23:15;;;;;;;9.30;5.32;;;3.30;41.20;;;;;;5083179;28;20025;-66
2022/03/12 05:25:42;;;;;;;9.15;5.65;;;3.30;41.40;;;;;;5078372;28;20150;-65
2022/03/12 05:28:15;;;;;;;9.45;5.47;;;3.50;41.50;;;;;;5066310;28;20127;-65
2022/03/12 05:30:44;;;;;;;14.77;5.55;;;3.20;41.60;;;;;;5072983;28;20031;-66
2022/03/12 05:33:10;;;;;;;11.57;5.78;;;3.40;41.60;;;;;;5087015;28;20025;-65
2022/03/12 05:35:39;;;;;;;8.85;5.20;;;3.20;41.60;;;;;;5088488;28;20520;-65
2022/03/12 05:38:06;;;;;;;9.00;5.72;;;3.20;41.80;;;;;;5078073;28;20025;-66
2022/03/12 05:40:37;;;;;;;6.63;4.70;;;3.30;41.80;;;;;;5078241;28;20210;-65
2022/03/12 05:43:03;;;;;;;13.48;5.40;;;3.20;41.80;;;;;;5080125;28;20059;-65
2022/03/12 05:45:28;;;;;;;10.90;5.45;;;3.20;41.70;;;;;;5072977;28;20020;-66
2022/03/12 05:47:55;;;;;;;12.50;5.30;;;3.20;41.70;;;;;;5093518;28;20051;-65
2022/03/12 05:50:21;;;;;;;8.35;5.20;;;3.20;41.60;;;;;;5085266;28;20021;-67
2022/03/12 05:52:49;;;;;;;10.60;5.32;;;3.30;41.40;;;;;;5080692;28;20058;-65
2022/03/12 05:55:18;;;;;;;9.23;5.25;;;3.30;41.60;;;;;;5078425;28;20072;-66
2022/03/12 05:57:44;;;;;;;9.50;5.63;;;3.30;41.70;;;;;;5087208;28;20025;-65
2022/03/12 06:00:11;;;;;;;11.40;5.75;;;3.30;41.60;;;;;;5084842;28;20023;-65
2022/03/12 06:02:41;;;;;;;10.52;6.50;;;3.30;41.40;;;;;;5078674;28;20024;-66
2022/03/12 06:05:14;;;;;;;10.65;6.25;;;3.50;41.30;;;;;;5084787;28;20360;-65
2022/03/12 06:07:44;;;;;;;14.90;6.55;;;3.40;41.10;;;;;;5077261;28;20051;-65
2022/03/12 06:10:11;;;;;;;13.70;6.93;;;3.40;40.90;;;;;;5078510;28;20384;-65
2022/03/12 06:12:43;;;;;;;10.95;6.38;;;3.40;40.80;;;;;;5089903;28;20136;-64
2022/03/12 06:15:10;;;;;;;14.07;6.38;;;3.50;40.90;;;;;;5082030;28;20043;-65
2022/03/12 06:17:38;;;;;;;12.45;5.03;;;3.50;40.90;;;;;;5096135;28;20029;-65
2022/03/12 06:20:04;;;;;;;12.13;5.05;;;3.80;41.30;;;;;;5087528;28;20360;-65
2022/03/12 06:22:30;;;;;;;9.07;5.45;;;3.60;41.50;;;;;;5077037;28;20040;-64
2022/03/12 06:24:56;;;;;;;9.50;5.75;;;3.60;41.50;;;;;;5083145;28;20033;-65
2022/03/12 06:27:22;;;;;;;11.20;6.20;;;3.70;41.60;;;;;;5087313;28;20042;-64
2022/03/12 06:29:48;;;;;;;10.07;5.65;;;3.70;41.60;;;;;;5084664;28;20033;-65
2022/03/12 06:32:14;;;;;;;13.57;6.22;;;3.70;41.60;;;;;;5107368;28;20061;-65
2022/03/12 06:34:41;;;;;;;10.52;6.38;;;3.80;41.70;;;;;;5087757;28;20105;-65
2022/03/12 06:37:08;;;;;;;13.35;6.43;;;3.80;41.70;;;;;;5085295;28;20045;-65
2022/03/12 06:39:34;;;;;;;11.70;6.22;;;4.20;41.80;;;;;;5079486;28;20100;-65
2022/03/12 06:42:02;;;;;;;9.43;5.43;;;3.90;41.40;;;;;;5079863;28;20116;-65
2022/03/12 06:44:31;;;;;;;11.90;5.80;;;4.10;41.40;;;;;;5084002;28;20374;-65
2022/03/12 06:47:01;;;;;;;9.07;5.53;;;4.00;40.90;;;;;;5090956;28;20032;-65
2022/03/12 06:49:28;;;;;;;10.60;6.15;;;4.00;40.70;;;;;;5058161;28;20025;-65
2022/03/12 06:51:55;;;;;;;10.05;5.30;;;4.10;40.60;;;;;;5095640;28;20036;-65
2022/03/12 06:54:22;;;;;;;8.60;5.00;;;4.20;40.40;;;;;;5083275;28;20101;-65
2022/03/12 06:56:47;;;;;;;9.30;5.25;;;4.20;40.10;;;;;;5094014;28;20063;-65
2022/03/12 06:59:14;;;;;;;9.85;5.63;;;4.30;39.90;;;;;;5077609;28;20032;-65
2022/03/12 07:01:39;;;;;;;10.25;5.75;;;4.30;39.80;;;;;;5089327;28;20032;-65
2022/03/12 07:04:06;;;;;;;9.98;4.97;;;4.40;39.70;;;;;;5084947;28;20048;-66
2022/03/12 07:06:35;;;;;;;9.73;4.93;;;4.50;39.50;;;;;;5084931;28;20029;-64
2022/03/12 07:09:01;;;;;;;14.23;5.30;;;4.70;39.50;;;;;;5089520;28;20028;-64
2022/03/12 07:11:29;;;;;;;8.98;4.88;;;4.70;39.40;;;;;;5088826;28;20028;-64
2022/03/12 07:13:55;;;;;;;9.23;4.70;;;5.10;40.00;;;;;;5091491;28;20035;-63
2022/03/12 07:16:21;;;;;;;9.35;4.93;;;4.90;39.00;;;;;;5081592;28;20120;-63
2022/03/12 07:18:47;;;;;;;9.70;4.60;;;5.00;38.80;;;;;;5076530;28;20033;-65
2022/03/12 07:21:12;;;;;;;9.07;4.57;;;5.10;38.70;;;;;;5081450;28;20036;-64
2022/03/12 07:23:38;;;;;;;8.55;4.97;;;5.20;38.50;;;;;;5105516;28;20062;-64
2022/03/12 07:26:04;;;;;;;12.27;5.10;;;5.30;38.50;;;;;;5085958;28;20024;-64
2022/03/12 07:28:31;;;;;;;9.88;5.32;;;5.30;38.30;;;;;;5063438;28;20040;-64
2022/03/12 07:30:57;;;;;;;8.82;5.50;;;5.30;38.20;;;;;;5083439;28;20098;-63
2022/03/12 07:33:23;;;;;;;9.30;5.45;;;5.40;38.00;;;;;;5083770;28;20036;-64
2022/03/12 07:35:49;;;;;;;10.35;5.10;;;5.40;37.90;;;;;;5087744;28;20059;-64
2022/03/12 07:38:15;;;;;;;9.48;5.00;;;5.40;37.90;;;;;;5086807;28;20064;-64
2022/03/12 07:40:40;;;;;;;7.72;4.57;;;5.50;38.00;;;;;;5089243;28;20058;-64
2022/03/12 07:43:07;;;;;;;8.52;5.20;;;5.50;37.90;;;;;;5088784;28;20029;-64
2022/03/12 07:45:33;;;;;;;8.50;4.90;;;5.60;37.90;;;;;;5082741;28;20090;-64
2022/03/12 07:47:59;;;;;;;11.05;4.95;;;5.70;37.90;;;;;;5085858;28;20427;-64
2022/03/12 07:50:26;;;;;;;10.95;4.85;;;5.80;37.90;;;;;;5081073;28;20119;-64
2022/03/12 07:52:52;;;;;;;10.00;4.70;;;5.80;37.80;;;;;;5087904;28;20024;-64
2022/03/12 07:55:18;;;;;;;9.27;4.88;;;5.90;37.70;;;;;;5076749;28;20032;-63
2022/03/12 07:57:45;;;;;;;11.07;5.43;;;6.00;37.60;;;;;;5075859;28;20108;-64
2022/03/12 08:00:12;;;;;;;8.75;5.30;;;6.20;37.60;;;;;;5082757;28;20025;-63
2022/03/12 08:02:38;;;;;;;8.25;5.40;;;6.20;37.20;;;;;;5085072;28;20027;-64
2022/03/12 08:05:05;;;;;;;7.18;4.55;;;6.30;37.20;;;;;;5086614;28;20053;-63
2022/03/12 08:07:32;;;;;;;11.25;5.32;;;6.40;37.20;;;;;;5086511;28;20055;-64
2022/03/12 08:09:59;;;;;;;8.93;5.43;;;6.50;37.20;;;;;;5072233;28;20375;-64
2022/03/12 08:12:28;;;;;;;10.25;5.30;;;6.70;37.10;;;;;;5086366;28;20025;-64
2022/03/12 08:14:54;;;;;;;11.77;5.03;;;6.80;36.90;;;;;;5084087;28;20032;-63
2022/03/12 08:17:21;;;;;;;12.93;5.25;;;6.90;36.70;;;;;;5089407;28;20051;-63
2022/03/12 08:19:47;;;;;;;11.70;5.68;;;7.00;36.70;;;;;;5081013;28;20091;-64
2022/03/12 08:22:13;;;;;;;11.35;5.80;;;7.20;36.60;;;;;;5083927;28;20021;-63
2022/03/12 08:24:39;;;;;;;9.48;5.97;;;7.30;36.50;;;;;;5078920;28;20040;-63
2022/03/12 08:27:05;;;;;;;10.13;5.43;;;7.40;36.50;;;;;;5091785;28;20043;-64
2022/03/12 08:29:31;;;;;;;11.52;5.45;;;7.50;36.30;;;;;;5084216;28;20027;-63
2022/03/12 08:31:57;;;;;;;9.23;5.80;;;7.60;36.30;;;;;;5069993;28;20036;-64
2022/03/12 08:34:23;;;;;;;10.70;6.22;;;7.70;36.20;;;;;;5089760;28;20063;-64
2022/03/12 08:36:49;;;;;;;9.55;5.63;;;7.80;36.20;;;;;;5080567;28;20029;-64
2022/03/12 08:39:15;;;;;;;11.02;5.60;;;7.90;36.40;;;;;;5078507;28;20038;-64
2022/03/12 08:41:41;;;;;;;8.55;5.13;;;8.00;36.70;;;;;;5088319;28;20036;-64
2022/03/12 08:44:09;;;;;;;8.98;5.00;;;8.20;36.20;;;;;;5075768;28;20054;-64
2022/03/12 08:46:35;;;;;;;13.63;6.45;;;8.20;35.70;;;;;;5082528;28;20009;-64
2022/03/12 08:49:03;;;;;;;9.85;7.07;;;8.30;35.60;;;;;;5086079;28;20028;-64
2022/03/12 08:51:28;;;;;;;8.35;5.35;;;8.40;35.60;;;;;;5095119;28;20514;-64
2022/03/12 08:53:55;;;;;;;11.57;6.32;;;8.40;35.40;;;;;;5087642;28;20024;-64
2022/03/12 08:56:20;;;;;;;9.30;5.35;;;8.50;35.30;;;;;;5081623;28;20020;-64
2022/03/12 08:58:47;;;;;;;9.10;5.88;;;8.60;35.20;;;;;;5072795;28;20059;-64
2022/03/12 09:01:13;;;;;;;9.88;6.28;;;8.70;35.20;;;;;;5081925;28;20037;-64
2022/03/12 09:03:39;;;;;;;7.25;5.45;;;8.80;35.00;;;;;;5086102;28;20024;-64
2022/03/12 09:06:07;;;;;;;8.90;5.60;;;8.90;34.90;;;;;;5078607;28;20025;-64
2022/03/12 09:08:33;;;;;;;9.43;5.50;;;9.00;34.90;;;;;;5090446;28;20584;-64
2022/03/12 09:10:59;;;;;;;9.20;5.68;;;9.10;34.80;;;;;;5089776;28;20032;-64
2022/03/12 09:13:25;;;;;;;11.82;5.78;;;9.20;34.70;;;;;;5089480;28;20031;-65
2022/03/12 09:15:54;;;;;;;9.25;5.70;;;9.30;34.40;;;;;;5059710;28;20021;-64
2022/03/12 09:18:20;;;;;;;11.90;5.65;;;9.40;34.50;;;;;;5071202;28;20436;-65
2022/03/12 09:20:47;;;;;;;10.25;5.95;;;9.50;34.40;;;;;;5072297;28;20017;-64
2022/03/12 09:23:18;;;;;;;10.18;6.05;;;9.50;34.20;;;;;;5084387;28;20020;-65
2022/03/12 09:25:45;;;;;;;9.95;5.28;;;9.60;34.10;;;;;;5088560;28;20388;-64
2022/03/12 09:28:11;;;;;;;13.38;6.45;;;9.70;34.30;;;;;;5075859;28;20056;-64
2022/03/12 09:30:37;;;;;;;8.30;5.45;;;9.70;33.90;;;;;;5086618;28;20033;-65
2022/03/12 09:33:04;;;;;;;12.85;5.75;;;9.80;34.00;;;;;;5084155;28;20036;-64
2022/03/12 09:35:29;;;;;;;11.48;6.32;;;9.90;34.00;;;;;;5079149;28;20515;-64
2022/03/12 09:37:55;;;;;;;11.15;6.55;;;10.00;33.90;;;;;;5073604;28;20088;-64
2022/03/12 09:40:22;;;;;;;12.23;7.13;;;10.00;33.90;;;;;;5071126;28;20088;-63
2022/03/12 09:42:48;;;;;;;9.73;6.03;;;10.10;33.90;;;;;;5086461;28;20028;-64
2022/03/12 09:45:14;;;;;;;10.07;6.55;;;10.30;33.90;;;;;;5083767;28;20032;-64
2022/03/12 09:47:41;;;;;;;11.75;6.80;;;10.40;33.60;;;;;;5081528;28;20062;-64
2022/03/12 09:50:08;;;;;;;15.57;6.80;;;10.50;34.00;;;;;;5089697;28;20032;-64
2022/03/12 09:52:34;;;;;;;13.45;6.88;;;10.60;33.50;;;;;;5084149;28;20093;-64
2022/03/12 09:54:59;;;;;;;9.73;6.45;;;10.70;33.30;;;;;;5080223;28;20028;-64
2022/03/12 09:57:25;;;;;;;12.80;7.15;;;10.80;33.30;;;;;;5080307;28;20028;-64
2022/03/12 09:59:50;;;;;;;9.32;6.13;;;10.90;33.20;;;;;;5083400;28;20025;-63
2022/03/12 10:02:16;;;;;;;9.30;6.07;;;11.00;33.10;;;;;;5101269;28;20071;-62
2022/03/12 10:04:43;;;;;;;9.45;6.18;;;11.10;32.90;;;;;;5083548;28;20040;-63
2022/03/12 10:07:09;;;;;;;10.40;6.40;;;11.30;32.90;;;;;;5079172;28;20414;-62
2022/03/12 10:09:36;;;;;;;11.63;6.70;;;11.40;33.20;;;;;;5087373;28;20040;-65
2022/03/12 10:12:02;;;;;;;9.90;6.30;;;11.50;33.00;;;;;;5095000;28;20028;-63
2022/03/12 10:14:28;;;;;;;9.75;6.47;;;11.70;33.10;;;;;;5076805;28;20021;-62
2022/03/12 10:16:54;;;;;;;9.38;6.65;;;11.80;32.90;;;;;;5079564;28;20025;-61
2022/03/12 10:19:20;;;;;;;15.15;6.97;;;12.00;32.70;;;;;;5081827;28;20031;-62
2022/03/12 10:21:52;;;;;;;16.75;7.40;;;12.00;32.50;;;;;;5097176;28;20032;-62
2022/03/12 10:24:18;;;;;;;11.13;7.00;;;12.10;32.40;;;;;;5078370;28;20049;-64
2022/03/12 10:26:45;;;;;;;15.80;6.55;;;12.30;32.50;;;;;;5092381;28;20066;-61
2022/03/12 10:29:11;;;;;;;11.13;7.45;;;12.40;32.30;;;;;;5080493;28;20122;-62
2022/03/12 10:31:40;;;;;;;10.82;6.97;;;12.50;32.00;;;;;;5086258;28;20037;-63
2022/03/12 10:34:23;;;;;;;12.85;7.68;;;12.60;32.00;;;;;;5092821;28;20021;-63
2022/03/12 10:36:51;;;;;;;10.63;6.65;;;12.70;31.70;;;;;;5062604;28;20050;-62
2022/03/12 10:39:29;;;;;;;13.95;6.82;;;12.80;31.80;;;;;;5081479;28;20489;-64
2022/03/12 10:42:00;;;;;;;14.82;7.70;;;12.90;31.70;;;;;;5077368;28;20033;-63
2022/03/12 10:44:39;;;;;;;10.10;6.40;;;13.00;31.40;;;;;;5072174;28;20075;-62
2022/03/12 10:47:25;;;;;;;20.95;6.68;;;13.10;31.50;;;;;;5075734;28;20033;-63
2022/03/12 10:49:57;;;;;;;11.82;7.20;;;13.20;31.00;;;;;;5077208;28;20020;-62
2022/03/12 10:52:30;;;;;;;12.43;7.20;;;13.30;31.30;;;;;;5090722;28;20033;-62
2022/03/12 10:54:56;;;;;;;12.27;7.15;;;13.40;31.50;;;;;;5072447;28;20143;-62
2022/03/12 10:57:22;;;;;;;13.80;7.43;;;13.50;31.30;;;;;;5083674;28;20027;-62
2022/03/12 10:59:55;;;;;;;12.75;7.05;;;13.60;31.20;;;;;;5098631;28;20574;-62
2022/03/12 11:02:22;;;;;;;13.20;6.80;;;13.80;30.80;;;;;;5085647;28;20028;-62
2022/03/12 11:04:47;;;;;;;16.60;7.47;;;13.80;31.20;;;;;;5097287;28;20025;-64
2022/03/12 11:07:26;;;;;;;10.43;7.07;;;13.90;31.10;;;;;;5085853;28;20067;-64
2022/03/12 11:09:53;;;;;;;9.98;7.25;;;14.00;30.40;;;;;;5097005;28;20024;-61
2022/03/12 11:12:30;;;;;;;9.82;6.88;;;14.10;30.50;;;;;;5083900;28;20020;-63
2022/03/12 11:15:14;;;;;;;13.30;7.20;;;14.20;30.40;;;;;;5081516;28;20088;-62
2022/03/12 11:17:49;;;;;;;10.27;7.20;;;14.40;30.30;;;;;;5074634;28;20078;-62
2022/03/12 11:20:28;;;;;;;11.82;6.75;;;14.50;30.30;;;;;;5082202;28;20309;-62
2022/03/12 11:23:16;;;;;;;14.00;6.88;;;14.60;30.20;;;;;;5084322;28;20021;-63
2022/03/12 11:26:13;;;;;;;12.00;7.85;;;14.60;30.10;;;;;;5084744;28;20073;-62
2022/03/12 11:28:50;;;;;;;11.73;7.25;;;14.70;30.00;;;;;;5068995;28;20045;-64
2022/03/12 11:31:15;;;;;;;10.13;6.97;;;14.80;30.30;;;;;;5071817;28;20076;-63
2022/03/12 11:33:41;;;;;;;11.88;7.13;;;14.90;30.20;;;;;;5097364;28;20020;-63
2022/03/12 11:36:09;;;;;;;14.00;7.13;;;15.00;30.20;;;;;;5092939;28;20078;-64
2022/03/12 11:38:36;;;;;;;11.20;8.00;;;15.10;30.20;;;;;;5084823;28;20021;-64
2022/03/12 11:41:25;;;;;;;12.05;7.07;;;15.20;29.90;;;;;;5078519;28;20029;-62
2022/03/12 11:43:50;;;;;;;16.90;7.25;;;15.30;29.70;;;;;;5085074;28;20031;-63
2022/03/12 11:46:16;;;;;;;16.15;7.60;;;15.40;30.00;;;;;;5088637;28;20020;-61
2022/03/12 11:48:42;;;;;;;11.85;7.68;;;15.50;29.80;;;;;;5085072;28;20137;-62
2022/03/12 11:51:21;;;;;;;13.43;7.72;;;15.60;29.50;;;;;;5094722;28;20399;-63
2022/03/12 11:53:47;;;;;;;12.80;6.68;;;15.60;29.50;;;;;;5070334;28;20033;-63
2022/03/12 11:56:14;;;;;;;13.02;7.47;;;15.70;29.70;;;;;;5090784;28;20032;-63
2022/03/12 11:58:40;;;;;;;16.02;7.63;;;15.70;29.70;;;;;;5092236;28;20024;-62
2022/03/12 12:01:06;;;;;;;12.75;7.93;;;15.80;29.30;;;;;;5084330;28;20056;-64
2022/03/12 12:03:32;;;;;;;12.70;8.07;;;15.90;29.40;;;;;;5087376;28;20043;-63
2022/03/12 12:05:58;;;;;;;13.52;8.02;;;15.90;29.30;;;;;;5091488;28;20028;-64
2022/03/12 12:08:25;;;;;;;15.05;7.47;;;16.00;29.30;;;;;;5087342;28;20044;-64
2022/03/12 12:10:54;;;;;;;12.95;7.40;;;16.10;29.30;;;;;;5079215;28;20032;-64
2022/03/12 12:13:21;;;;;;;11.70;7.38;;;16.20;29.30;;;;;;5091174;28;20029;-64
2022/03/12 12:15:47;;;;;;;22.42;8.15;;;16.30;29.30;;;;;;5098698;28;20031;-64
2022/03/12 12:18:13;;;;;;;13.10;7.30;;;16.40;29.20;;;;;;5090616;28;20021;-63
2022/03/12 12:20:42;;;;;;;14.27;7.25;;;16.50;29.40;;;;;;5080783;28;20028;-64
2022/03/12 12:23:15;;;;;;;12.68;7.45;;;16.60;29.30;;;;;;5085092;28;20028;-63
2022/03/12 12:25:41;;;;;;;11.48;7.65;;;16.80;29.00;;;;;;5072119;28;20050;-64
2022/03/12 12:28:44;;;;;;;13.52;7.57;;;16.90;29.10;;;;;;5059574;28;20113;-64
2022/03/12 12:31:24;;;;;;;14.38;7.45;;;17.00;28.80;;;;;;5080472;28;20048;-63
2022/03/12 12:33:50;;;;;;;11.85;7.68;;;17.10;28.80;;;;;;5071169;28;20025;-62
2022/03/12 12:36:18;;;;;;;16.02;7.70;;;17.20;28.70;;;;;;5093801;28;20041;-63
2022/03/12 12:39:07;;;;;;;12.10;8.02;;;17.20;28.70;;;;;;5075475;28;20040;-65
2022/03/12 12:41:53;;;;;;;13.40;6.78;;;17.30;28.00;;;;;;5086160;28;20069;-62
2022/03/12 12:44:44;;;;;;;10.43;6.70;;;17.40;28.20;;;;;;5089355;28;20085;-63
2022/03/12 12:47:17;;;;;;;11.70;7.43;;;17.40;28.30;;;;;;5093098;28;20054;-62
2022/03/12 12:49:53;;;;;;;12.90;7.60;;;17.50;28.80;;;;;;5065450;28;20036;-62
2022/03/12 12:52:19;;;;;;;11.32;7.20;;;17.60;28.70;;;;;;5084749;28;20491;-65